createdAt,value
2023-04-01T00:20:27.742Z,11.77
2023-04-01T00:33:42.468Z,11.31
2023-04-01T01:12:10.662Z,11.48
2023-04-01T01:18:36.990Z,11.58
2023-04-01T02:12:09.502Z,10.91
2023-04-01T02:18:00.500Z,10.74
2023-04-01T02:23:48.149Z,10.59
2023-04-01T02:37:39.941Z,10.30
2023-04-01T02:43:32.578Z,10.45
2023-04-01T02:49:25.350Z,10.41
2023-04-01T02:55:12.284Z,10.68
2023-04-01T03:00:59.310Z,10.89
2023-04-01T03:14:07.697Z,10.76
2023-04-01T03:42:43.421Z,10.78
2023-04-01T03:49:02.527Z,10.80
2023-04-01T03:55:05.735Z,10.79
2023-04-01T04:07:30.016Z,10.92
2023-04-01T04:22:05.695Z,10.57
2023-04-01T04:34:19.217Z,10.34
2023-04-01T05:33:22.674Z,9.71
2023-04-01T05:39:16.573Z,10.00
2023-04-01T05:45:12.457Z,10.25
2023-04-01T05:51:27.907Z,9.98
2023-04-01T06:04:39.761Z,9.60
2023-04-01T06:10:45.831Z,9.51
2023-04-01T06:17:11.900Z,9.47
2023-04-01T06:23:41.657Z,9.38
2023-04-01T06:29:45.444Z,9.34
2023-04-01T06:35:38.638Z,9.35
2023-04-01T06:41:41.403Z,9.69
2023-04-01T06:47:46.761Z,10.00
2023-04-01T06:54:45.880Z,10.00
2023-04-01T07:00:59.449Z,10.08
2023-04-01T07:07:14.037Z,10.12
2023-04-01T07:13:40.786Z,9.35
2023-04-01T07:19:52.393Z,9.38
2023-04-01T07:25:52.318Z,9.35
2023-04-01T07:32:18.900Z,9.37
2023-04-01T07:38:19.344Z,9.49
2023-04-01T07:44:43.051Z,9.68
2023-04-01T07:50:36.520Z,9.70
2023-04-01T07:56:24.208Z,9.40
2023-04-01T08:02:35.010Z,9.30
2023-04-01T08:08:33.787Z,9.34
2023-04-01T08:15:23.134Z,9.55
2023-04-01T08:21:25.245Z,9.35
2023-04-01T08:27:22.679Z,9.46
2023-04-01T08:33:18.283Z,9.31
2023-04-01T08:39:22.912Z,9.83
2023-04-01T08:45:29.935Z,9.94
2023-04-01T08:52:01.269Z,10.02
2023-04-01T08:58:31.285Z,10.15
2023-04-01T09:05:41.988Z,10.00
2023-04-01T09:11:54.427Z,10.08
2023-04-01T09:18:19.349Z,10.05
2023-04-01T09:24:45.661Z,9.86
2023-04-01T09:30:36.225Z,10.09
2023-04-01T09:37:06.062Z,9.85
2023-04-01T09:43:05.734Z,10.18
2023-04-01T09:49:07.406Z,10.11
2023-04-01T10:10:03.198Z,10.32
2023-04-01T10:16:54.140Z,10.01
2023-04-01T10:22:57.096Z,9.57
2023-04-01T10:28:53.953Z,9.58
2023-04-01T10:41:52.619Z,9.80
2023-04-01T10:48:56.859Z,9.92
2023-04-01T10:55:13.018Z,9.87
2023-04-01T11:02:27.299Z,9.75
2023-04-01T11:09:02.292Z,9.87
2023-04-01T11:22:49.907Z,10.61
2023-04-01T11:37:25.383Z,10.30
2023-04-01T11:44:31.777Z,10.99
2023-04-01T11:50:42.117Z,11.55
2023-04-01T11:57:05.520Z,11.64
2023-04-01T12:04:05.570Z,11.32
2023-04-01T12:10:09.756Z,11.31
2023-04-01T12:16:09.022Z,11.11
2023-04-01T12:22:20.432Z,11.02
2023-04-01T12:35:24.237Z,11.52
2023-04-01T12:42:23.420Z,12.30
2023-04-01T12:56:47.690Z,11.85
2023-04-01T13:03:06.731Z,11.67
2023-04-01T13:09:18.060Z,11.79
2023-04-01T13:15:39.758Z,11.71
2023-04-01T13:29:04.042Z,12.11
2023-04-01T13:41:39.864Z,11.81
2023-04-01T13:47:58.878Z,12.12
2023-04-01T14:01:28.658Z,11.33
2023-04-01T14:07:51.320Z,11.42
2023-04-01T14:14:05.655Z,11.47
2023-04-01T14:20:22.209Z,11.72
2023-04-01T14:26:24.295Z,11.74
2023-04-01T14:32:20.426Z,11.24
2023-04-01T14:38:32.323Z,11.24
2023-04-01T14:44:43.118Z,11.32
2023-04-01T14:50:41.785Z,11.48
2023-04-01T14:56:49.391Z,11.68
2023-04-01T15:02:45.498Z,11.03
2023-04-01T15:09:47.657Z,10.83
2023-04-01T15:16:01.264Z,11.01
2023-04-01T15:22:20.614Z,10.99
2023-04-01T15:28:31.593Z,10.97
2023-04-01T15:34:30.103Z,10.79
2023-04-01T15:41:02.313Z,10.68
2023-04-01T15:47:05.106Z,10.66
2023-04-01T15:53:58.697Z,10.53
2023-04-01T16:27:22.550Z,10.40
2023-04-01T16:33:20.700Z,10.21
2023-04-01T16:39:46.585Z,10.13
2023-04-01T16:46:26.935Z,9.93
2023-04-01T16:53:01.195Z,10.02
2023-04-01T17:12:57.311Z,9.94
2023-04-01T17:19:08.031Z,9.80
2023-04-01T17:25:08.351Z,9.84
2023-04-01T17:37:28.613Z,9.91
2023-04-01T17:43:36.532Z,9.75
2023-04-01T17:50:28.270Z,9.89
2023-04-01T17:56:19.388Z,9.83
2023-04-01T18:02:59.971Z,9.83
2023-04-01T18:15:57.590Z,10.05
2023-04-01T18:22:43.461Z,9.94
2023-04-01T18:28:34.086Z,9.98
2023-04-01T18:35:12.200Z,9.90
2023-04-01T18:49:10.157Z,10.04
2023-04-01T18:55:19.588Z,9.74
2023-04-01T19:02:08.955Z,9.75
2023-04-01T19:08:24.111Z,9.79
2023-04-01T19:14:28.990Z,9.68
2023-04-01T19:20:52.659Z,9.58
2023-04-01T19:27:21.242Z,9.73
2023-04-01T19:41:13.052Z,9.58
2023-04-01T19:47:23.991Z,9.49
2023-04-01T19:53:57.987Z,9.38
2023-04-01T19:59:59.414Z,9.35
2023-04-01T20:06:25.652Z,9.28
2023-04-01T20:13:10.396Z,9.26
2023-04-01T20:19:01.411Z,9.04
2023-04-01T20:24:49.679Z,9.08
2023-04-01T20:32:01.361Z,9.27
2023-04-01T20:37:52.525Z,9.59
2023-04-01T20:43:51.496Z,9.23
2023-04-01T20:56:55.749Z,8.85
2023-04-01T21:03:06.787Z,8.71
2023-04-01T21:09:18.143Z,8.78
2023-04-01T21:15:43.670Z,8.71
2023-04-01T21:22:36.064Z,8.73
2023-04-01T21:28:49.574Z,8.93
2023-04-01T21:35:04.333Z,8.81
2023-04-01T21:42:09.603Z,8.76
2023-04-01T21:47:45.875Z,9.03
2023-04-01T21:54:14.272Z,8.82
2023-04-01T22:00:14.412Z,8.94
2023-04-01T22:06:24.627Z,8.89
2023-04-01T22:12:46.042Z,8.84
2023-04-01T22:18:36.087Z,8.78
2023-04-01T22:24:42.812Z,8.80
2023-04-01T22:30:54.420Z,8.73
2023-04-01T22:37:13.392Z,8.65
2023-04-01T22:43:05.479Z,8.50
2023-04-01T22:57:04.531Z,8.51
2023-04-01T23:11:33.738Z,8.35
2023-04-01T23:17:41.884Z,8.49
2023-04-01T23:23:57.829Z,8.32
2023-04-01T23:29:48.778Z,8.42
2023-04-01T23:35:52.191Z,8.63
2023-04-01T23:41:39.193Z,8.24
2023-04-01T23:47:34.971Z,8.28
2023-04-01T23:53:35.168Z,8.45
2023-04-01T23:59:31.223Z,8.80
